Terminal Aerodrome Forecast
Issued by NWS Wakefield, VA

Home | Current Version | Previous Version | Text Only | Print | Product List | Glossary On
Versions: 1 2 3 4 5 6 7 8 9 10 11 12 13 14
812
FTUS41 KAKQ 271131
TAFECG
TAF
KECG 271131Z 2712/2812 VRB03KT P6SM SCT040 BKN070
     FM271500 06011KT P6SM SCT060
     FM280200 05006KT P6SM SKC
     FM280800 03006KT 5SM BR BKN015=

USA.gov is the U.S. government's official web portal to all federal, state and local government web resources and services.